sensor_id;sensor_type;location;lat;lon;timestamp;pressure;altitude;pressure_sealevel;temperature;humidity
47985;BME280;33753;52.912;-7.342;2023-04-01T00:01:25;99162.19;;;8.91;100.00
47985;BME280;33753;52.912;-7.342;2023-04-01T00:03:53;99167.22;;;8.94;100.00
47985;BME280;33753;52.912;-7.342;2023-04-01T00:06:23;99170.38;;;8.98;100.00
47985;BME280;33753;52.912;-7.342;2023-04-01T00:08:51;99171.00;;;9.00;100.00
47985;BME280;33753;52.912;-7.342;2023-04-01T00:11:20;99165.59;;;9.00;100.00
47985;BME280;33753;52.912;-7.342;2023-04-01T00:13:50;99177.16;;;8.94;100.00
47985;BME280;33753;52.912;-7.342;2023-04-01T00:16:18;99169.34;;;8.99;100.00
47985;BME280;33753;52.912;-7.342;2023-04-01T00:18:48;99170.56;;;8.96;100.00
47985;BME280;33753;52.912;-7.342;2023-04-01T00:21:17;99181.28;;;8.90;100.00
47985;BME280;33753;52.912;-7.342;2023-04-01T00:23:45;99176.75;;;8.90;100.00
47985;BME280;33753;52.912;-7.342;2023-04-01T00:26:14;99169.47;;;8.91;100.00
47985;BME280;33753;52.912;-7.342;2023-04-01T00:28:45;99180.06;;;8.92;100.00
47985;BME280;33753;52.912;-7.342;2023-04-01T00:31:16;99178.34;;;8.85;100.00
47985;BME280;33753;52.912;-7.342;2023-04-01T00:33:44;99170.88;;;8.87;100.00
47985;BME280;33753;52.912;-7.342;2023-04-01T00:36:13;99174.97;;;8.82;100.00
47985;BME280;33753;52.912;-7.342;2023-04-01T00:38:42;99168.00;;;8.88;100.00
47985;BME280;33753;52.912;-7.342;2023-04-01T00:41:10;99180.00;;;8.86;100.00
47985;BME280;33753;52.912;-7.342;2023-04-01T00:43:41;99176.09;;;8.88;100.00
47985;BME280;33753;52.912;-7.342;2023-04-01T00:46:10;99172.56;;;8.88;100.00
47985;BME280;33753;52.912;-7.342;2023-04-01T00:48:41;99174.97;;;8.82;100.00
47985;BME280;33753;52.912;-7.342;2023-04-01T00:51:10;99172.94;;;8.85;100.00
47985;BME280;33753;52.912;-7.342;2023-04-01T00:53:43;99181.03;;;8.85;100.00
47985;BME280;33753;52.912;-7.342;2023-04-01T00:56:13;99183.72;;;8.85;100.00
47985;BME280;33753;52.912;-7.342;2023-04-01T00:58:44;99180.75;;;8.79;100.00
47985;BME280;33753;52.912;-7.342;2023-04-01T01:01:15;99185.34;;;8.79;100.00
47985;BME280;33753;52.912;-7.342;2023-04-01T01:03:45;99181.41;;;8.81;100.00
47985;BME280;33753;52.912;-7.342;2023-04-01T01:06:16;99177.06;;;8.80;100.00
47985;BME280;33753;52.912;-7.342;2023-04-01T01:08:58;99184.94;;;8.82;100.00
47985;BME280;33753;52.912;-7.342;2023-04-01T01:11:35;99183.47;;;8.79;100.00
47985;BME280;33753;52.912;-7.342;2023-04-01T01:14:17;99180.00;;;8.86;100.00
47985;BME280;33753;52.912;-7.342;2023-04-01T01:16:51;99187.84;;;8.80;100.00
47985;BME280;33753;52.912;-7.342;2023-04-01T01:19:29;99178.69;;;8.81;100.00
47985;BME280;33753;52.912;-7.342;2023-04-01T01:22:05;99178.06;;;8.79;100.00
47985;BME280;33753;52.912;-7.342;2023-04-01T01:24:40;99182.44;;;8.80;100.00
47985;BME280;33753;52.912;-7.342;2023-04-01T01:27:12;99190.97;;;8.84;100.00
47985;BME280;33753;52.912;-7.342;2023-04-01T01:32:44;99191.16;;;8.82;100.00
47985;BME280;33753;52.912;-7.342;2023-04-01T01:35:22;99191.09;;;8.76;100.00
47985;BME280;33753;52.912;-7.342;2023-04-01T01:37:53;99195.66;;;8.75;100.00
47985;BME280;33753;52.912;-7.342;2023-04-01T01:40:24;99198.53;;;8.74;100.00
47985;BME280;33753;52.912;-7.342;2023-04-01T01:42:54;99199.38;;;8.74;100.00
47985;BME280;33753;52.912;-7.342;2023-04-01T01:45:23;99201.44;;;8.72;100.00
47985;BME280;33753;52.912;-7.342;2023-04-01T01:47:53;99215.19;;;8.77;100.00
47985;BME280;33753;52.912;-7.342;2023-04-01T01:50:24;99206.81;;;8.72;100.00
47985;BME280;33753;52.912;-7.342;2023-04-01T01:53:00;99201.25;;;8.74;100.00
47985;BME280;33753;52.912;-7.342;2023-04-01T01:55:30;99205.16;;;8.71;100.00
47985;BME280;33753;52.912;-7.342;2023-04-01T01:57:59;99209.53;;;8.72;100.00
47985;BME280;33753;52.912;-7.342;2023-04-01T02:00:29;99210.91;;;8.68;100.00
47985;BME280;33753;52.912;-7.342;2023-04-01T02:02:58;99221.50;;;8.70;100.00
47985;BME280;33753;52.912;-7.342;2023-04-01T02:05:29;99225.41;;;8.67;100.00
47985;BME280;33753;52.912;-7.342;2023-04-01T02:08:06;99226.47;;;8.66;100.00
47985;BME280;33753;52.912;-7.342;2023-04-01T02:10:37;99226.81;;;8.63;100.00
47985;BME280;33753;52.912;-7.342;2023-04-01T02:13:09;99227.47;;;8.65;100.00
47985;BME280;33753;52.912;-7.342;2023-04-01T02:15:41;99233.69;;;8.65;100.00
47985;BME280;33753;52.912;-7.342;2023-04-01T02:18:13;99226.19;;;8.61;100.00
47985;BME280;33753;52.912;-7.342;2023-04-01T02:20:44;99231.97;;;8.58;100.00
47985;BME280;33753;52.912;-7.342;2023-04-01T02:23:12;99228.06;;;8.45;100.00
47985;BME280;33753;52.912;-7.342;2023-04-01T02:25:42;99228.53;;;8.49;100.00
47985;BME280;33753;52.912;-7.342;2023-04-01T02:28:11;99220.66;;;8.47;100.00
47985;BME280;33753;52.912;-7.342;2023-04-01T02:30:43;99228.06;;;8.45;100.00
47985;BME280;33753;52.912;-7.342;2023-04-01T02:33:12;99230.38;;;8.48;100.00
47985;BME280;33753;52.912;-7.342;2023-04-01T02:35:41;99233.06;;;8.48;100.00
47985;BME280;33753;52.912;-7.342;2023-04-01T02:38:10;99233.06;;;8.48;100.00
47985;BME280;33753;52.912;-7.342;2023-04-01T02:40:43;99234.63;;;8.43;100.00
47985;BME280;33753;52.912;-7.342;2023-04-01T02:43:12;99234.13;;;8.47;100.00
47985;BME280;33753;52.912;-7.342;2023-04-01T02:45:40;99236.81;;;8.47;100.00
47985;BME280;33753;52.912;-7.342;2023-04-01T02:48:08;99239.50;;;8.47;100.00
47985;BME280;33753;52.912;-7.342;2023-04-01T02:50:36;99234.81;;;8.41;100.00
47985;BME280;33753;52.912;-7.342;2023-04-01T02:53:05;99237.31;;;8.43;100.00
47985;BME280;33753;52.912;-7.342;2023-04-01T02:55:35;99240.59;;;8.38;100.00
47985;BME280;33753;52.912;-7.342;2023-04-01T02:58:03;99237.50;;;8.41;100.00
47985;BME280;33753;52.912;-7.342;2023-04-01T03:00:32;99244.59;;;8.42;100.00
47985;BME280;33753;52.912;-7.342;2023-04-01T03:03:01;99242.91;;;8.41;100.00
47985;BME280;33753;52.912;-7.342;2023-04-01T03:05:29;99242.72;;;8.43;100.00
47985;BME280;33753;52.912;-7.342;2023-04-01T03:07:58;99247.94;;;8.44;100.00
47985;BME280;33753;52.912;-7.342;2023-04-01T03:10:26;99249.63;;;8.45;100.00
47985;BME280;33753;52.912;-7.342;2023-04-01T03:12:56;99256.03;;;8.44;100.00
47985;BME280;33753;52.912;-7.342;2023-04-01T03:15:24;99260.88;;;8.49;100.00
47985;BME280;33753;52.912;-7.342;2023-04-01T03:17:53;99268.28;;;8.47;100.00
47985;BME280;33753;52.912;-7.342;2023-04-01T03:20:22;99265.13;;;8.43;100.00
47985;BME280;33753;52.912;-7.342;2023-04-01T03:22:50;99267.81;;;8.43;100.00
47985;BME280;33753;52.912;-7.342;2023-04-01T03:25:19;99267.81;;;8.43;100.00
47985;BME280;33753;52.912;-7.342;2023-04-01T03:27:47;99275.25;;;8.41;100.00
47985;BME280;33753;52.912;-7.342;2023-04-01T03:30:17;99269.84;;;8.41;100.00
47985;BME280;33753;52.912;-7.342;2023-04-01T03:32:49;99278.59;;;8.43;100.00
47985;BME280;33753;52.912;-7.342;2023-04-01T03:35:18;99277.44;;;8.46;100.00
47985;BME280;33753;52.912;-7.342;2023-04-01T03:37:46;99283.13;;;8.43;100.00
47985;BME280;33753;52.912;-7.342;2023-04-01T03:40:15;99279.41;;;8.44;100.00
47985;BME280;33753;52.912;-7.342;2023-04-01T03:42:44;99288.00;;;8.47;100.00
47985;BME280;33753;52.912;-7.342;2023-04-01T03:45:13;99292.34;;;8.48;100.00
47985;BME280;33753;52.912;-7.342;2023-04-01T03:47:43;99293.09;;;8.42;100.00
47985;BME280;33753;52.912;-7.342;2023-04-01T03:50:12;99284.94;;;8.51;100.00
47985;BME280;33753;52.912;-7.342;2023-04-01T03:52:40;99291.72;;;8.46;100.00
47985;BME280;33753;52.912;-7.342;2023-04-01T03:55:09;99297.47;;;8.43;100.00
47985;BME280;33753;52.912;-7.342;2023-04-01T03:57:38;99293.84;;;8.36;100.00
47985;BME280;33753;52.912;-7.342;2023-04-01T04:00:15;99295.97;;;8.41;100.00
47985;BME280;33753;52.912;-7.342;2023-04-01T04:02:49;99299.81;;;8.46;100.00
47985;BME280;33753;52.912;-7.342;2023-04-01T04:05:23;99304.69;;;8.43;100.00
47985;BME280;33753;52.912;-7.342;2023-04-01T04:07:52;99310.25;;;8.41;100.00
47985;BME280;33753;52.912;-7.342;2023-04-01T04:10:20;99306.94;;;8.39;100.00
47985;BME280;33753;52.912;-7.342;2023-04-01T04:12:49;99310.47;;;8.40;100.00
47985;BME280;33753;52.912;-7.342;2023-04-01T04:15:20;99318.72;;;8.38;100.00
47985;BME280;33753;52.912;-7.342;2023-04-01T04:17:49;99320.78;;;8.36;100.00
47985;BME280;33753;52.912;-7.342;2023-04-01T04:20:18;99314.09;;;8.32;100.00
47985;BME280;33753;52.912;-7.342;2023-04-01T04:22:46;99307.41;;;8.28;100.00
47985;BME280;33753;52.912;-7.342;2023-04-01T04:25:14;99311.78;;;8.29;100.00
47985;BME280;33753;52.912;-7.342;2023-04-01T04:27:43;99322.72;;;8.27;100.00
47985;BME280;33753;52.912;-7.342;2023-04-01T04:30:13;99322.25;;;8.24;100.00
47985;BME280;33753;52.912;-7.342;2023-04-01T04:32:41;99328.00;;;8.21;100.00
47985;BME280;33753;52.912;-7.342;2023-04-01T04:35:12;99321.69;;;8.13;100.00
47985;BME280;33753;52.912;-7.342;2023-04-01T04:37:41;99331.28;;;8.16;100.00
47985;BME280;33753;52.912;-7.342;2023-04-01T04:40:09;99334.41;;;8.20;100.00
47985;BME280;33753;52.912;-7.342;2023-04-01T04:42:38;99330.41;;;8.16;100.00
47985;BME280;33753;52.912;-7.342;2023-04-01T04:45:10;99333.78;;;8.18;100.00
47985;BME280;33753;52.912;-7.342;2023-04-01T04:47:45;99344.19;;;8.21;100.00
47985;BME280;33753;52.912;-7.342;2023-04-01T04:50:15;99345.84;;;8.22;100.00
47985;BME280;33753;52.912;-7.342;2023-04-01T04:52:43;99356.63;;;8.22;100.00
47985;BME280;33753;52.912;-7.342;2023-04-01T04:55:11;99357.66;;;8.21;100.00
47985;BME280;33753;52.912;-7.342;2023-04-01T04:57:44;99356.63;;;8.22;100.00
47985;BME280;33753;52.912;-7.342;2023-04-01T05:00:13;99361.16;;;8.21;100.00
47985;BME280;33753;52.912;-7.342;2023-04-01T05:03:01;99371.56;;;8.24;100.00
47985;BME280;33753;52.912;-7.342;2023-04-01T05:05:32;99368.88;;;8.24;100.00
47985;BME280;33753;52.912;-7.342;2023-04-01T05:08:01;99364.91;;;8.20;100.00
47985;BME280;33753;52.912;-7.342;2023-04-01T05:10:30;99372.44;;;8.25;100.00
47985;BME280;33753;52.912;-7.342;2023-04-01T05:12:58;99375.13;;;8.25;100.00
47985;BME280;33753;52.912;-7.342;2023-04-01T05:15:27;99381.16;;;8.27;100.00
47985;BME280;33753;52.912;-7.342;2023-04-01T05:17:55;99382.81;;;8.28;100.00
47985;BME280;33753;52.912;-7.342;2023-04-01T05:20:23;99384.88;;;8.26;100.00
47985;BME280;33753;52.912;-7.342;2023-04-01T05:22:56;99396.00;;;8.23;100.00
47985;BME280;33753;52.912;-7.342;2023-04-01T05:25:25;99394.34;;;8.22;100.00
47985;BME280;33753;52.912;-7.342;2023-04-01T05:27:53;99395.53;;;8.19;100.00
47985;BME280;33753;52.912;-7.342;2023-04-01T05:30:22;99401.56;;;8.21;100.00
47985;BME280;33753;52.912;-7.342;2023-04-01T05:33:03;99406.88;;;8.15;100.00
47985;BME280;33753;52.912;-7.342;2023-04-01T05:35:31;99415.41;;;8.18;100.00
47985;BME280;33753;52.912;-7.342;2023-04-01T05:38:02;99420.03;;;8.09;100.00
47985;BME280;33753;52.912;-7.342;2023-04-01T05:40:30;99418.28;;;8.17;100.00
47985;BME280;33753;52.912;-7.342;2023-04-01T05:42:59;99426.38;;;8.17;100.00
47985;BME280;33753;52.912;-7.342;2023-04-01T05:45:27;99426.06;;;8.11;100.00
47985;BME280;33753;52.912;-7.342;2023-04-01T05:48:06;99438.53;;;8.12;100.00
47985;BME280;33753;52.912;-7.342;2023-04-01T05:50:39;99436.13;;;8.18;100.00
47985;BME280;33753;52.912;-7.342;2023-04-01T05:53:10;99434.69;;;8.07;100.00
47985;BME280;33753;52.912;-7.342;2023-04-01T05:55:41;99442.22;;;8.11;100.00
47985;BME280;33753;52.912;-7.342;2023-04-01T05:58:10;99443.97;;;8.04;100.00
47985;BME280;33753;52.912;-7.342;2023-04-01T06:00:41;99445.00;;;8.03;100.00
47985;BME280;33753;52.912;-7.342;2023-04-01T06:03:11;99457.91;;;8.08;100.00
47985;BME280;33753;52.912;-7.342;2023-04-01T06:05:39;99456.06;;;8.08;100.00
47985;BME280;33753;52.912;-7.342;2023-04-01T06:08:22;99454.09;;;8.02;100.00
47985;BME280;33753;52.912;-7.342;2023-04-01T06:10:53;99459.59;;;8.09;100.00
47985;BME280;33753;52.912;-7.342;2023-04-01T06:13:26;99467.50;;;8.10;100.00
47985;BME280;33753;52.912;-7.342;2023-04-01T06:15:58;99469.69;;;8.07;100.00
47985;BME280;33753;52.912;-7.342;2023-04-01T06:18:39;99464.50;;;8.05;100.00
47985;BME280;33753;52.912;-7.342;2023-04-01T06:21:14;99470.38;;;8.09;100.00
47985;BME280;33753;52.912;-7.342;2023-04-01T06:24:00;99473.59;;;8.04;100.00
47985;BME280;33753;52.912;-7.342;2023-04-01T06:26:39;99478.63;;;8.07;100.00
47985;BME280;33753;52.912;-7.342;2023-04-01T06:29:31;99484.38;;;8.04;100.00
47985;BME280;33753;52.912;-7.342;2023-04-01T06:32:09;99485.69;;;8.08;100.00
47985;BME280;33753;52.912;-7.342;2023-04-01T06:34:49;99491.75;;;8.10;100.00
47985;BME280;33753;52.912;-7.342;2023-04-01T06:37:28;99504.84;;;8.13;100.00
47985;BME280;33753;52.912;-7.342;2023-04-01T06:40:09;99507.22;;;8.08;100.00
47985;BME280;33753;52.912;-7.342;2023-04-01T06:42:57;99518.38;;;8.05;100.00
47985;BME280;33753;52.912;-7.342;2023-04-01T06:45:48;99518.97;;;8.16;100.00
47985;BME280;33753;52.912;-7.342;2023-04-01T06:48:42;99534.66;;;8.12;100.00
47985;BME280;33753;52.912;-7.342;2023-04-01T06:51:36;99535.84;;;8.09;100.00
47985;BME280;33753;52.912;-7.342;2023-04-01T06:54:42;99546.25;;;8.12;100.00
47985;BME280;33753;52.912;-7.342;2023-04-01T06:57:33;99547.94;;;8.13;100.00
47985;BME280;33753;52.912;-7.342;2023-04-01T07:00:05;99556.31;;;8.19;100.00
47985;BME280;33753;52.912;-7.342;2023-04-01T07:02:41;99555.03;;;8.15;100.00
47985;BME280;33753;52.912;-7.342;2023-04-01T07:05:11;99560.75;;;8.11;100.00
47985;BME280;33753;52.912;-7.342;2023-04-01T07:07:41;99564.09;;;8.13;100.00
47985;BME280;33753;52.912;-7.342;2023-04-01T07:10:13;99571.31;;;8.13;100.00
47985;BME280;33753;52.912;-7.342;2023-04-01T07:13:10;99567.81;;;8.12;100.00
47985;BME280;33753;52.912;-7.342;2023-04-01T07:15:54;99584.25;;;8.26;100.00
47985;BME280;33753;52.912;-7.342;2023-04-01T07:18:30;99583.56;;;8.24;100.00
47985;BME280;33753;52.912;-7.342;2023-04-01T07:21:03;99579.72;;;8.18;100.00
47985;BME280;33753;52.912;-7.342;2023-04-01T07:23:32;99584.56;;;8.23;100.00
47985;BME280;33753;52.912;-7.342;2023-04-01T07:26:27;99592.63;;;8.31;100.00
47985;BME280;33753;52.912;-7.342;2023-04-01T07:29:13;99592.75;;;8.38;100.00
47985;BME280;33753;52.912;-7.342;2023-04-01T07:31:59;99601.38;;;8.33;100.00
47985;BME280;33753;52.912;-7.342;2023-04-01T07:34:30;99600.66;;;8.39;100.00
47985;BME280;33753;52.912;-7.342;2023-04-01T07:37:02;99597.28;;;8.37;100.00
47985;BME280;33753;52.912;-7.342;2023-04-01T07:39:35;99601.38;;;8.33;100.00
47985;BME280;33753;52.912;-7.342;2023-04-01T07:42:24;99616.00;;;8.39;100.00
47985;BME280;33753;52.912;-7.342;2023-04-01T07:44:57;99618.13;;;8.43;100.00
47985;BME280;33753;52.912;-7.342;2023-04-01T07:47:34;99619.13;;;8.51;100.00
47985;BME280;33753;52.912;-7.342;2023-04-01T07:50:10;99620.09;;;8.58;100.00
47985;BME280;33753;52.912;-7.342;2023-04-01T07:52:43;99629.19;;;8.57;100.00
47985;BME280;33753;52.912;-7.342;2023-04-01T07:55:21;99632.06;;;8.55;100.00
47985;BME280;33753;52.912;-7.342;2023-04-01T07:57:53;99639.59;;;8.60;100.00
47985;BME280;33753;52.912;-7.342;2023-04-01T08:00:27;99647.50;;;8.61;100.00
47985;BME280;33753;52.912;-7.342;2023-04-01T08:03:12;99645.31;;;8.65;100.00
47985;BME280;33753;52.912;-7.342;2023-04-01T08:05:49;99651.72;;;8.64;100.00
47985;BME280;33753;52.912;-7.342;2023-04-01T08:08:24;99655.41;;;8.63;100.00
47985;BME280;33753;52.912;-7.342;2023-04-01T08:11:26;99659.94;;;8.71;100.00
47985;BME280;33753;52.912;-7.342;2023-04-01T08:14:19;99666.16;;;8.71;100.00
47985;BME280;33753;52.912;-7.342;2023-04-01T08:17:05;99668.84;;;8.71;100.00
47985;BME280;33753;52.912;-7.342;2023-04-01T08:19:45;99671.88;;;8.76;100.00
47985;BME280;33753;52.912;-7.342;2023-04-01T08:22:20;99678.94;;;8.77;100.00
47985;BME280;33753;52.912;-7.342;2023-04-01T08:24:49;99689.28;;;8.89;100.00
47985;BME280;33753;52.912;-7.342;2023-04-01T08:27:23;99701.22;;;8.71;100.00
47985;BME280;33753;52.912;-7.342;2023-04-01T08:29:56;99696.19;;;8.68;100.00
47985;BME280;33753;52.912;-7.342;2023-04-01T08:32:30;99694.75;;;8.80;100.00
47985;BME280;33753;52.912;-7.342;2023-04-01T08:35:03;99699.78;;;8.84;100.00
47985;BME280;33753;52.912;-7.342;2023-04-01T08:37:38;99707.56;;;8.78;100.00
47985;BME280;33753;52.912;-7.342;2023-04-01T08:40:16;99712.19;;;8.93;100.00
47985;BME280;33753;52.912;-7.342;2023-04-01T08:42:55;99719.09;;;8.95;100.00
47985;BME280;33753;52.912;-7.342;2023-04-01T08:45:36;99730.38;;;8.99;100.00
47985;BME280;33753;52.912;-7.342;2023-04-01T08:51:19;99742.75;;;9.08;100.00
47985;BME280;33753;52.912;-7.342;2023-04-01T08:54:03;99740.75;;;9.10;100.00
47985;BME280;33753;52.912;-7.342;2023-04-01T08:56:36;99747.19;;;9.24;100.00
47985;BME280;33753;52.912;-7.342;2023-04-01T08:59:24;99758.59;;;9.34;100.00
47985;BME280;33753;52.912;-7.342;2023-04-01T09:02:03;99761.78;;;9.38;100.00
47985;BME280;33753;52.912;-7.342;2023-04-01T09:07:49;99774.19;;;9.47;100.00
47985;BME280;33753;52.912;-7.342;2023-04-01T09:16:16;99775.28;;;9.76;100.00
47985;BME280;33753;52.912;-7.342;2023-04-01T09:18:53;99788.16;;;9.89;100.00
47985;BME280;33753;52.912;-7.342;2023-04-01T09:21:31;99786.78;;;10.08;100.00
47985;BME280;33753;52.912;-7.342;2023-04-01T09:26:57;99785.03;;;10.30;100.00
47985;BME280;33753;52.912;-7.342;2023-04-01T09:29:32;99794.94;;;10.38;100.00
47985;BME280;33753;52.912;-7.342;2023-04-01T09:32:17;99794.81;;;10.61;100.00
47985;BME280;33753;52.912;-7.342;2023-04-01T09:35:11;99796.13;;;10.80;100.00
47985;BME280;33753;52.912;-7.342;2023-04-01T09:37:51;99799.47;;;10.82;100.00
47985;BME280;33753;52.912;-7.342;2023-04-01T09:40:25;99806.38;;;10.85;100.00
47985;BME280;33753;52.912;-7.342;2023-04-01T09:43:11;99809.75;;;10.72;100.00
47985;BME280;33753;52.912;-7.342;2023-04-01T09:45:47;99801.34;;;10.82;100.00
47985;BME280;33753;52.912;-7.342;2023-04-01T09:48:24;99801.25;;;10.75;100.00
47985;BME280;33753;52.912;-7.342;2023-04-01T09:51:01;99807.28;;;10.77;100.00
47985;BME280;33753;52.912;-7.342;2023-04-01T09:53:41;99808.53;;;10.60;100.00
47985;BME280;33753;52.912;-7.342;2023-04-01T09:56:26;99821.13;;;10.67;100.00
47985;BME280;33753;52.912;-7.342;2023-04-01T10:07:56;99833.50;;;10.32;100.00
47985;BME280;33753;52.912;-7.342;2023-04-01T10:10:42;99843.44;;;10.54;100.00
47985;BME280;33753;52.912;-7.342;2023-04-01T10:13:24;99845.63;;;10.66;100.00
47985;BME280;33753;52.912;-7.342;2023-04-01T10:18:53;99856.88;;;11.14;100.00
47985;BME280;33753;52.912;-7.342;2023-04-01T10:27:04;99850.00;;;11.33;100.00
47985;BME280;33753;52.912;-7.342;2023-04-01T10:38:52;99866.94;;;11.20;100.00
47985;BME280;33753;52.912;-7.342;2023-04-01T10:41:49;99878.03;;;11.26;100.00
47985;BME280;33753;52.912;-7.342;2023-04-01T10:44:54;99882.75;;;11.02;100.00
47985;BME280;33753;52.912;-7.342;2023-04-01T10:47:39;99886.56;;;10.93;100.00
47985;BME280;33753;52.912;-7.342;2023-04-01T10:50:19;99900.00;;;10.86;100.00
47985;BME280;33753;52.912;-7.342;2023-04-01T11:14:23;99936.28;;;11.36;100.00
47985;BME280;33753;52.912;-7.342;2023-04-01T11:19:57;99924.31;;;12.04;100.00
47985;BME280;33753;52.912;-7.342;2023-04-01T11:22:41;99920.25;;;12.15;100.00
47985;BME280;33753;52.912;-7.342;2023-04-01T11:31:19;99910.72;;;12.82;100.00
47985;BME280;33753;52.912;-7.342;2023-04-01T11:33:52;99916.84;;;12.62;100.00
47985;BME280;33753;52.912;-7.342;2023-04-01T11:36:25;99919.06;;;12.87;100.00
47985;BME280;33753;52.912;-7.342;2023-04-01T11:39:03;99918.09;;;12.95;100.00
47985;BME280;33753;52.912;-7.342;2023-04-01T11:42:07;99925.47;;;13.08;100.00
47985;BME280;33753;52.912;-7.342;2023-04-01T11:44:51;99928.97;;;13.37;100.00
47985;BME280;33753;52.912;-7.342;2023-04-01T11:47:44;99945.91;;;13.45;100.00
47985;BME280;33753;52.912;-7.342;2023-04-01T11:50:25;99938.94;;;13.29;100.00
47985;BME280;33753;52.912;-7.342;2023-04-01T11:52:59;99932.22;;;13.25;100.00
47985;BME280;33753;52.912;-7.342;2023-04-01T11:55:31;99940.63;;;13.30;100.00
47985;BME280;33753;52.912;-7.342;2023-04-01T12:00:57;99953.25;;;13.10;100.00
47985;BME280;33753;52.912;-7.342;2023-04-01T12:03:37;99981.44;;;13.09;100.00
47985;BME280;33753;52.912;-7.342;2023-04-01T12:06:12;99977.69;;;12.82;100.00
47985;BME280;33753;52.912;-7.342;2023-04-01T12:08:44;99985.81;;;12.75;100.00
47985;BME280;33753;52.912;-7.342;2023-04-01T12:11:22;99994.34;;;12.43;100.00
47985;BME280;33753;52.912;-7.342;2023-04-01T12:13:55;100003.47;;;12.64;100.00
47985;BME280;33753;52.912;-7.342;2023-04-01T12:16:29;100006.34;;;12.84;100.00
47985;BME280;33753;52.912;-7.342;2023-04-01T12:19:08;100021.38;;;13.15;100.00
47985;BME280;33753;52.912;-7.342;2023-04-01T12:21:44;100010.91;;;13.47;100.00
47985;BME280;33753;52.912;-7.342;2023-04-01T12:30:02;100014.03;;;13.92;100.00
47985;BME280;33753;52.912;-7.342;2023-04-01T12:32:38;100011.97;;;14.14;100.00
47985;BME280;33753;52.912;-7.342;2023-04-01T12:35:17;100013.69;;;14.22;100.00
47985;BME280;33753;52.912;-7.342;2023-04-01T12:37:59;100021.19;;;14.07;100.00
47985;BME280;33753;52.912;-7.342;2023-04-01T12:40:40;100035.25;;;13.62;100.00
47985;BME280;33753;52.912;-7.342;2023-04-01T12:46:07;100049.69;;;13.34;100.00
47985;BME280;33753;52.912;-7.342;2023-04-01T12:48:47;100063.88;;;13.29;100.00
47985;BME280;33753;52.912;-7.342;2023-04-01T12:57:14;100065.19;;;14.37;100.00
47985;BME280;33753;52.912;-7.342;2023-04-01T13:00:03;100072.09;;;14.53;100.00
47985;BME280;33753;52.912;-7.342;2023-04-01T13:02:39;100069.59;;;14.45;100.00
47985;BME280;33753;52.912;-7.342;2023-04-01T13:08:06;100071.44;;;14.24;100.00
47985;BME280;33753;52.912;-7.342;2023-04-01T13:10:56;100076.25;;;14.29;100.00
47985;BME280;33753;52.912;-7.342;2023-04-01T13:13:34;100083.28;;;13.96;100.00
47985;BME280;33753;52.912;-7.342;2023-04-01T13:16:07;100100.97;;;13.79;100.00
47985;BME280;33753;52.912;-7.342;2023-04-01T13:18:47;100104.16;;;13.47;100.00
47985;BME280;33753;52.912;-7.342;2023-04-01T13:21:20;100123.22;;;13.32;100.00
47985;BME280;33753;52.912;-7.342;2023-04-01T13:23:56;100123.63;;;13.01;100.00
47985;BME280;33753;52.912;-7.342;2023-04-01T13:26:29;100131.91;;;13.21;100.00
47985;BME280;33753;52.912;-7.342;2023-04-01T13:29:06;100135.94;;;13.25;100.00
47985;BME280;33753;52.912;-7.342;2023-04-01T13:31:42;100134.03;;;13.26;100.00
47985;BME280;33753;52.912;-7.342;2023-04-01T13:34:17;100142.56;;;13.44;100.00
47985;BME280;33753;52.912;-7.342;2023-04-01T13:36:54;100132.63;;;13.58;100.00
47985;BME280;33753;52.912;-7.342;2023-04-01T13:39:27;100140.84;;;13.37;100.00
47985;BME280;33753;52.912;-7.342;2023-04-01T13:42:05;100144.19;;;13.39;100.00
47985;BME280;33753;52.912;-7.342;2023-04-01T13:44:40;100161.16;;;13.19;100.00
47985;BME280;33753;52.912;-7.342;2023-04-01T13:47:38;100169.41;;;13.32;100.00
47985;BME280;33753;52.912;-7.342;2023-04-01T13:55:53;100175.13;;;13.38;100.00
47985;BME280;33753;52.912;-7.342;2023-04-01T13:58:30;100174.81;;;13.54;100.00
47985;BME280;33753;52.912;-7.342;2023-04-01T14:01:07;100185.84;;;13.46;100.00
47985;BME280;33753;52.912;-7.342;2023-04-01T14:03:43;100198.34;;;13.19;100.00
47985;BME280;33753;52.912;-7.342;2023-04-01T14:06:21;100219.34;;;12.88;100.00
47985;BME280;33753;52.912;-7.342;2023-04-01T14:11:50;100228.09;;;12.17;100.00
47985;BME280;33753;52.912;-7.342;2023-04-01T14:14:22;100238.94;;;12.17;100.00
47985;BME280;33753;52.912;-7.342;2023-04-01T14:22:38;100245.19;;;12.33;100.00
47985;BME280;33753;52.912;-7.342;2023-04-01T14:25:17;100251.75;;;12.53;100.00
47985;BME280;33753;52.912;-7.342;2023-04-01T14:27:54;100257.81;;;12.55;100.00
47985;BME280;33753;52.912;-7.342;2023-04-01T14:33:12;100252.53;;;13.05;100.00
47985;BME280;33753;52.912;-7.342;2023-04-01T14:35:49;100245.47;;;13.32;100.00
47985;BME280;33753;52.912;-7.342;2023-04-01T14:38:26;100249.00;;;13.48;100.00
47985;BME280;33753;52.912;-7.342;2023-04-01T14:40:56;100259.59;;;13.43;100.00
47985;BME280;33753;52.912;-7.342;2023-04-01T14:43:44;100272.00;;;13.09;100.00
47985;BME280;33753;52.912;-7.342;2023-04-01T14:46:30;100269.91;;;12.89;100.00
47985;BME280;33753;52.912;-7.342;2023-04-01T14:49:04;100278.16;;;12.81;100.00
47985;BME280;33753;52.912;-7.342;2023-04-01T14:51:33;100290.91;;;12.66;100.00
47985;BME280;33753;52.912;-7.342;2023-04-01T14:54:08;100297.66;;;12.40;100.00
47985;BME280;33753;52.912;-7.342;2023-04-01T14:56:40;100298.31;;;12.27;100.00
47985;BME280;33753;52.912;-7.342;2023-04-01T14:59:10;100298.59;;;12.17;100.00
47985;BME280;33753;52.912;-7.342;2023-04-01T15:01:40;100297.28;;;12.43;100.00
47985;BME280;33753;52.912;-7.342;2023-04-01T15:04:23;100299.53;;;12.54;100.00
47985;BME280;33753;52.912;-7.342;2023-04-01T15:06:56;100314.69;;;12.64;100.00
47985;BME280;33753;52.912;-7.342;2023-04-01T15:09:32;100318.41;;;12.77;100.00
47985;BME280;33753;52.912;-7.342;2023-04-01T15:12:08;100317.66;;;12.69;100.00
47985;BME280;33753;52.912;-7.342;2023-04-01T15:14:43;100328.56;;;12.39;100.00
47985;BME280;33753;52.912;-7.342;2023-04-01T15:17:20;100316.47;;;12.41;100.00